Main page
METAR-TAF:

METAR-TAF

Airports :

Bahawalpur, Pakistan

Bahawalpur Airport

latitude: 29-20-53N, longitude: 71-43-04E, elevation: 119 m

METAR: missing

Time: 19:03 (14:03 UTC)

Forecast

The report was made 3 hours and 58 minutes ago, at 10:05 UTC
Forecast valid from 21 at 12 UTC to 22 at 06 UTC
Wind 5 kt from the Southeast
Visibility: 2500 m
smoke
Probability 30% :
Temporary
from 22 at 01 UTC to 22 at 05 UTC
Wind kt from the North
Visibility: 0800 m
mist

TAF: OPBW 211005Z 2112/2206 13005KT 2500 FU NSC TN18/2201Z PROB30 TEMPO 2201/2205 00000KT 0800 BR NSC

Weather observations and forecasts of more than 4000 airports (METAR and TAF reports).

The available stations are represented by yellow and red dots on the map.

Hover mouse over dot to see the name of the station.

Then click to see weather observations and forecasts.

To change the map : click on the green buttons with a black cross to zoom in, on the green button with a dash to zoom out, or on the green arrows for adjacent maps.


METAR-TAF: